Time;durP1;ratioP1;P1;durP2;ratioP2;P2;SDS_P1;SDS_P2;PMS_P1;PMS_P2;Temp;Humidity;BMP_temperature;BMP_pressure;BME280_temperature;BME280_humidity;BME280_pressure;Samples;Min_cycle;Max_cycle;Signal;HPM_P1;HPM_P2
2023/04/23 00:02:52;;;;;;;1.38;1.00;;;;;;;19.30;39.10;100636.69;16116519;19;131242;-43
2023/04/23 00:08:17;;;;;;;0.88;0.80;;;;;;;19.28;38.75;100635.25;16128194;19;129548;-44
2023/04/23 00:13:39;;;;;;;1.73;1.00;;;;;;;19.26;38.98;100629.97;16123507;19;129139;-42
2023/04/23 00:19:01;;;;;;;1.45;0.80;;;;;;;19.24;38.95;100626.63;16123835;19;129957;-42
2023/04/23 00:24:23;;;;;;;1.15;1.05;;;;;;;19.22;39.10;100620.50;16119566;19;131705;-42
2023/04/23 00:29:45;;;;;;;0.80;0.80;;;;;;;19.20;39.12;100622.69;16127046;19;131202;-43
2023/04/23 00:35:07;;;;;;;1.17;1.08;;;;;;;19.18;38.79;100605.44;16123686;19;129043;-41
2023/04/23 00:40:29;;;;;;;1.00;0.90;;;;;;;19.17;38.72;100609.31;16124313;19;130721;-42
2023/04/23 00:45:51;;;;;;;1.52;0.90;;;;;;;19.15;38.71;100603.19;16121995;19;130691;-44
2023/04/23 00:51:16;;;;;;;1.05;0.85;;;;;;;19.15;38.77;100594.88;16121231;19;129136;-42
2023/04/23 00:56:38;;;;;;;0.80;0.80;;;;;;;19.12;38.75;100587.91;16120771;19;130670;-44
2023/04/23 01:02:00;;;;;;;0.93;0.80;;;;;;;19.11;38.70;100589.00;16117883;19;130353;-43
2023/04/23 01:07:22;;;;;;;0.70;0.70;;;;;;;19.09;38.86;100585.66;16121634;19;130365;-43
2023/04/23 01:12:45;;;;;;;0.88;0.80;;;;;;;19.08;39.12;100587.56;16120761;19;131123;-44
2023/04/23 01:18:07;;;;;;;0.88;0.73;;;;;;;19.07;38.96;100593.38;16121672;19;130644;-42
2023/04/23 01:23:29;;;;;;;1.10;0.70;;;;;;;19.05;38.91;100590.03;16123361;19;131074;-42
2023/04/23 01:28:52;;;;;;;0.85;0.85;;;;;;;19.03;38.68;100593.06;16120094;19;129585;-42
2023/04/23 01:34:14;;;;;;;1.80;0.90;;;;;;;19.03;39.13;100584.75;16121513;19;129875;-44
2023/04/23 01:39:36;;;;;;;0.85;0.80;;;;;;;19.01;38.90;100589.72;16121621;19;130452;-42
2023/04/23 01:44:58;;;;;;;1.35;0.70;;;;;;;19.00;39.10;100593.56;16119331;19;129965;-43
2023/04/23 01:50:23;;;;;;;1.40;1.10;;;;;;;18.98;39.06;100590.22;16117527;19;129785;-44
2023/04/23 01:55:46;;;;;;;1.13;0.70;;;;;;;18.98;38.63;100592.97;16117082;19;130627;-44
2023/04/23 02:01:08;;;;;;;0.70;0.70;;;;;;;18.96;38.64;100591.56;16116806;19;130032;-43
2023/04/23 02:06:31;;;;;;;0.73;0.73;;;;;;;18.94;38.90;100583.53;16122503;19;131418;-44
2023/04/23 02:11:53;;;;;;;1.48;1.02;;;;;;;18.94;38.66;100585.44;16118095;19;131806;-42
2023/04/23 02:17:15;;;;;;;0.70;0.70;;;;;;;18.90;39.08;100580.41;16120960;19;129780;-43
2023/04/23 02:22:39;;;;;;;1.08;0.70;;;;;;;18.90;38.70;100574.88;16117615;19;129299;-46
2023/04/23 02:28:05;;;;;;;1.17;0.87;;;;;;;18.88;39.05;100576.22;16114742;19;133552;-46
2023/04/23 02:33:26;;;;;;;0.68;0.68;;;;;;;18.87;38.80;100580.09;16108978;19;129685;-42
2023/04/23 02:38:50;;;;;;;1.77;0.80;;;;;;;18.87;38.63;100569.00;16117798;19;130171;-42
2023/04/23 02:44:11;;;;;;;1.90;1.02;;;;;;;18.85;38.88;100571.19;16117901;19;130780;-43
2023/04/23 02:49:33;;;;;;;0.77;0.70;;;;;;;18.83;38.78;100571.44;16116330;19;129848;-43
2023/04/23 02:54:55;;;;;;;0.73;0.73;;;;;;;18.82;38.68;100568.94;16111458;19;131335;-42
2023/04/23 03:00:17;;;;;;;1.05;0.70;;;;;;;18.81;38.97;100564.50;16116379;19;130394;-43
2023/04/23 03:05:39;;;;;;;1.65;0.68;;;;;;;18.79;39.07;100564.72;16114830;19;129249;-42
2023/04/23 03:11:01;;;;;;;1.17;0.70;;;;;;;18.77;39.11;100565.00;16115588;19;129921;-43
2023/04/23 03:16:23;;;;;;;1.13;0.95;;;;;;;18.76;38.89;100560.56;16115092;19;129790;-42
2023/04/23 03:21:45;;;;;;;0.85;0.60;;;;;;;18.74;38.84;100562.72;16112290;19;131587;-42
2023/04/23 03:27:07;;;;;;;2.33;0.70;;;;;;;18.74;39.13;100568.28;16111877;19;130500;-41
2023/04/23 03:32:29;;;;;;;1.00;0.90;;;;;;;18.73;38.50;100558.28;16110099;19;129776;-42
2023/04/23 03:37:51;;;;;;;2.33;0.90;;;;;;;18.73;38.65;100555.50;16124885;19;131085;-45
2023/04/23 03:43:13;;;;;;;1.60;1.00;;;;;;;18.72;38.92;100567.69;16125790;19;129265;-42
2023/04/23 03:48:35;;;;;;;1.15;0.80;;;;;;;18.71;38.86;100562.41;16127582;19;129791;-41
2023/04/23 03:53:57;;;;;;;1.42;0.60;;;;;;;18.70;38.94;100567.13;16128099;19;129695;-44
2023/04/23 03:59:19;;;;;;;0.60;0.60;;;;;;;18.69;39.12;100576.53;16127392;19;129037;-42
2023/04/23 04:04:42;;;;;;;1.25;0.70;;;;;;;18.67;39.04;100569.56;16125909;19;132950;-45
2023/04/23 04:10:05;;;;;;;0.50;0.50;;;;;;;18.67;38.65;100562.09;16130509;19;130257;-42
2023/04/23 04:15:27;;;;;;;0.60;0.60;;;;;;;18.65;38.92;100564.28;16130468;19;129880;-42
2023/04/23 04:20:50;;;;;;;1.63;0.70;;;;;;;18.63;38.72;100549.84;16125917;19;131564;-42
2023/04/23 04:26:14;;;;;;;0.60;0.60;;;;;;;18.63;38.63;100555.38;16128366;19;130714;-42
2023/04/23 04:31:36;;;;;;;0.50;0.50;;;;;;;18.62;38.57;100562.00;16125762;19;129471;-42
2023/04/23 04:36:58;;;;;;;1.30;0.80;;;;;;;18.61;39.05;100563.97;16121110;19;129491;-42
2023/04/23 04:42:20;;;;;;;0.63;0.63;;;;;;;18.62;38.78;100575.84;16121071;19;131003;-41
2023/04/23 04:47:42;;;;;;;0.70;0.70;;;;;;;18.59;38.74;100568.06;16118050;19;130377;-44
2023/04/23 04:53:03;;;;;;;0.50;0.50;;;;;;;18.58;38.83;100563.63;16122123;19;129669;-42
2023/04/23 04:58:25;;;;;;;0.60;0.60;;;;;;;18.56;38.59;100563.88;16122097;19;133485;-45
2023/04/23 05:03:47;;;;;;;0.50;0.50;;;;;;;18.56;39.04;100572.19;16118884;19;130646;-42
2023/04/23 05:09:10;;;;;;;1.10;0.50;;;;;;;18.55;38.87;100567.72;16120733;19;130582;-42
2023/04/23 05:14:32;;;;;;;0.70;0.47;;;;;;;18.55;38.90;100569.69;16121192;19;130141;-41
2023/04/23 05:19:54;;;;;;;0.95;0.70;;;;;;;18.54;38.98;100574.38;16122300;19;129258;-48
2023/04/23 05:25:16;;;;;;;0.82;0.57;;;;;;;18.53;38.90;100571.84;16117639;19;130087;-42
2023/04/23 05:30:38;;;;;;;1.17;0.60;;;;;;;18.53;38.56;100572.69;16119952;19;129606;-42
2023/04/23 05:36:00;;;;;;;1.38;0.60;;;;;;;18.51;38.62;100568.50;16118863;19;130223;-44
2023/04/23 05:41:22;;;;;;;0.70;0.50;;;;;;;18.52;38.71;100567.41;16121562;19;130246;-41
2023/04/23 05:46:44;;;;;;;0.73;0.70;;;;;;;18.57;38.63;100561.94;16117728;19;130660;-43
2023/04/23 05:52:06;;;;;;;2.10;0.50;;;;;;;18.78;38.84;100563.06;16121001;19;130677;-43
2023/04/23 05:57:28;;;;;;;0.82;0.50;;;;;;;19.10;38.58;100558.75;16117962;19;131449;-42
2023/04/23 06:02:49;;;;;;;0.50;0.50;;;;;;;19.31;38.25;100548.78;16119610;19;129279;-41
2023/04/23 06:08:11;;;;;;;0.68;0.50;;;;;;;19.45;37.78;100547.28;16117917;19;130572;-43
2023/04/23 06:13:39;;;;;;;3.72;0.60;;;;;;;19.57;37.48;100552.66;16120339;19;129571;-44
2023/04/23 06:19:04;;;;;;;5.80;0.75;;;;;;;19.68;37.86;100542.50;16118089;19;129451;-43
2023/04/23 06:24:26;;;;;;;3.72;0.95;;;;;;;19.78;37.79;100536.22;16121936;19;134157;-42
2023/04/23 06:29:47;;;;;;;7.30;1.05;;;;;;;19.84;37.49;100538.78;16118411;19;129403;-42
2023/04/23 06:35:09;;;;;;;1.83;0.80;;;;;;;19.89;37.28;100539.91;16118745;19;129535;-41
2023/04/23 06:40:32;;;;;;;3.15;1.00;;;;;;;19.95;37.32;100544.41;16113529;19;129499;-42
2023/04/23 06:45:54;;;;;;;5.47;1.15;;;;;;;19.99;37.69;100532.53;16114993;19;130090;-43
2023/04/23 06:51:16;;;;;;;4.30;1.25;;;;;;;20.04;37.79;100517.84;16117272;19;129749;-43
2023/04/23 06:56:38;;;;;;;9.77;1.92;;;;;;;20.10;37.72;100522.34;16108250;19;131196;-42
2023/04/23 07:02:00;;;;;;;4.80;1.30;;;;;;;20.12;37.93;100510.97;16117907;19;129364;-45
2023/04/23 07:07:21;;;;;;;8.40;1.63;;;;;;;20.15;37.91;100504.88;16121634;19;130481;-48
2023/04/23 07:12:44;;;;;;;5.05;1.38;;;;;;;20.17;38.10;100513.78;16112652;19;129564;-43
2023/04/23 07:18:06;;;;;;;5.38;1.50;;;;;;;20.20;38.41;100516.00;16120318;19;134339;-44
2023/04/23 07:23:27;;;;;;;4.65;1.30;;;;;;;20.24;38.50;100513.56;16118199;19;129905;-45
2023/04/23 07:28:49;;;;;;;10.30;1.67;;;;;;;20.28;38.37;100517.47;16115171;19;130828;-45
2023/04/23 07:34:13;;;;;;;3.20;1.27;;;;;;;20.32;38.44;100506.63;16115795;19;129649;-44
2023/04/23 07:39:35;;;;;;;5.30;1.40;;;;;;;20.36;38.55;100496.69;16114613;19;129658;-43
2023/04/23 07:44:57;;;;;;;3.83;1.38;;;;;;;20.37;38.86;100498.34;16111842;19;130076;-42
2023/04/23 07:50:19;;;;;;;4.85;1.40;;;;;;;20.38;38.81;100489.72;16115472;19;130568;-44
2023/04/23 07:55:41;;;;;;;7.05;1.17;;;;;;;20.39;38.90;100479.47;16115281;19;129474;-43
2023/04/23 08:01:03;;;;;;;3.92;1.38;;;;;;;20.41;39.06;100477.28;16113761;19;130402;-50
2023/04/23 08:06:26;;;;;;;3.38;1.17;;;;;;;20.42;38.94;100484.50;16118158;19;129510;-52
2023/04/23 08:11:48;;;;;;;4.65;1.05;;;;;;;20.43;38.94;100480.63;16112840;19;129722;-43
2023/04/23 08:17:09;;;;;;;3.90;1.17;;;;;;;20.44;38.71;100487.81;16111847;19;131572;-50
2023/04/23 08:22:31;;;;;;;4.78;1.52;;;;;;;20.41;38.63;100485.59;16123885;19;129823;-46
2023/04/23 08:27:53;;;;;;;8.43;1.67;;;;;;;20.29;38.14;100474.69;16122416;19;130076;-48
2023/04/23 08:33:15;;;;;;;9.00;2.03;;;;;;;20.18;38.10;100471.03;16124064;19;130392;-46
2023/04/23 08:38:37;;;;;;;11.45;1.88;;;;;;;20.18;37.65;100481.28;16120633;19;129781;-46
2023/04/23 08:44:14;;;;;;;14.77;1.88;;;;;;;20.20;37.52;100474.34;16116128;19;130281;-48
2023/04/23 08:49:40;;;;;;;6.32;1.65;;;;;;;20.19;37.31;100471.84;16113947;19;129805;-44
2023/04/23 08:55:06;;;;;;;8.15;1.60;;;;;;;20.22;37.43;100472.16;16116150;19;130755;-42
2023/04/23 09:00:28;;;;;;;;;;;;;;;20.20;37.60;100468.78;16114399;19;130883;-48
2023/04/23 09:05:52;;;;;;;12.23;2.00;;;;;;;20.22;37.67;100458.25;16117055;19;130125;-51
2023/04/23 09:11:15;;;;;;;4.07;1.30;;;;;;;20.19;37.54;100461.56;16115767;19;131250;-51
2023/04/23 09:16:39;;;;;;;5.28;1.40;;;;;;;20.14;37.43;100462.38;16114025;19;130325;-49
2023/04/23 09:22:01;;;;;;;4.28;1.30;;;;;;;20.09;38.00;100447.63;16111570;19;130594;-46
2023/04/23 09:27:25;;;;;;;10.80;1.55;;;;;;;20.06;37.95;100449.00;16116377;19;130608;-48
2023/04/23 09:32:48;;;;;;;4.90;1.60;;;;;;;20.03;37.62;100434.81;16111669;19;131672;-49
2023/04/23 09:38:10;;;;;;;4.47;1.25;;;;;;;19.98;37.99;100439.19;16115285;19;129700;-50
2023/04/23 09:43:32;;;;;;;10.40;1.67;;;;;;;19.97;37.91;100440.31;16108386;19;130820;-49
2023/04/23 09:48:56;;;;;;;4.70;1.58;;;;;;;19.95;38.13;100430.56;16113855;19;129662;-42
2023/04/23 09:54:21;;;;;;;4.20;1.20;;;;;;;19.92;38.16;100426.41;16120315;19;128986;-44
2023/04/23 09:59:43;;;;;;;6.18;1.30;;;;;;;19.90;37.81;100428.59;16118323;19;131638;-44
2023/04/23 10:05:18;;;;;;;3.92;1.38;;;;;;;19.89;38.17;100424.16;16123304;19;131670;-41
2023/04/23 10:10:46;;;;;;;3.50;1.40;;;;;;;19.83;38.21;100416.88;16123063;19;130228;-42
2023/04/23 10:16:28;;;;;;;4.75;1.30;;;;;;;19.81;38.00;100408.00;16124714;19;131313;-43
2023/04/23 10:22:07;;;;;;;11.65;1.70;;;;;;;19.77;37.87;100407.69;16120984;19;130539;-44
2023/04/23 10:27:45;;;;;;;8.57;1.70;;;;;;;19.77;37.65;100406.84;16119476;19;130858;-45
2023/04/23 10:33:15;;;;;;;7.28;1.30;;;;;;;19.77;37.83;100395.75;16123856;19;130937;-43
2023/04/23 10:38:50;;;;;;;7.32;1.48;;;;;;;19.77;37.74;100391.03;16114950;19;130938;-41
2023/04/23 10:44:20;;;;;;;10.27;1.30;;;;;;;19.77;38.04;100379.09;16118317;19;129030;-43
2023/04/23 10:50:27;;;;;;;4.82;1.10;;;;;;;19.76;37.63;100361.59;16114749;19;130063;-42
2023/04/23 10:55:49;;;;;;;6.85;1.10;;;;;;;19.73;37.82;100344.66;16114564;19;131019;-41
2023/04/23 11:01:11;;;;;;;6.18;1.42;;;;;;;19.70;38.11;100340.47;16115205;19;129562;-43
2023/04/23 11:06:48;;;;;;;3.33;0.90;;;;;;;19.71;37.66;100341.31;16116425;19;129140;-44
2023/04/23 11:12:30;;;;;;;7.60;1.15;;;;;;;19.66;37.97;100322.69;16113110;19;130331;-44
2023/04/23 11:17:52;;;;;;;4.55;1.30;;;;;;;19.61;38.17;100320.72;16113052;19;131095;-42
2023/04/23 11:23:28;;;;;;;4.30;1.10;;;;;;;19.58;37.86;100315.69;16110496;19;131226;-42
2023/04/23 11:28:52;;;;;;;7.47;1.25;;;;;;;19.55;37.69;100299.59;16111575;19;130518;-41
2023/04/23 11:34:15;;;;;;;8.30;1.23;;;;;;;19.54;37.99;100292.38;16108236;19;129831;-41
2023/04/23 11:39:39;;;;;;;8.90;1.00;;;;;;;19.53;37.85;100285.16;16111748;19;130294;-44
2023/04/23 11:45:02;;;;;;;8.15;1.35;;;;;;;19.53;37.81;100268.53;16110383;19;130727;-42
2023/04/23 11:50:26;;;;;;;7.97;1.10;;;;;;;19.53;38.21;100272.13;16113090;19;130013;-42
2023/04/23 11:55:48;;;;;;;9.00;1.00;;;;;;;19.54;38.38;100267.41;16114706;19;129491;-41
2023/04/23 12:01:11;;;;;;;11.73;1.50;;;;;;;19.57;38.09;100252.16;16120123;19;130211;-41
2023/04/23 12:06:33;;;;;;;9.85;2.58;;;;;;;19.60;38.14;100246.91;16123847;19;130786;-42
2023/04/23 12:11:57;;;;;;;11.60;2.75;;;;;;;19.63;38.31;100235.28;16123328;19;130186;-42
2023/04/23 12:17:19;;;;;;;13.18;3.45;;;;;;;19.65;38.46;100237.78;16128986;19;129355;-44
2023/04/23 12:22:41;;;;;;;7.80;2.10;;;;;;;19.63;38.57;100221.41;16124829;19;134562;-43
2023/04/23 12:28:06;;;;;;;10.40;2.47;;;;;;;19.65;38.51;100216.41;16123632;19;130867;-43
2023/04/23 12:33:29;;;;;;;9.07;2.05;;;;;;;19.63;38.67;100201.97;16125546;19;129446;-42
2023/04/23 12:38:51;;;;;;;6.05;1.95;;;;;;;19.63;38.52;100206.72;16125927;19;129774;-42
2023/04/23 12:44:14;;;;;;;8.93;2.20;;;;;;;19.59;38.62;100200.84;16124043;19;129875;-41
2023/04/23 12:49:38;;;;;;;8.10;1.95;;;;;;;19.57;38.53;100202.22;16125996;19;130934;-41
2023/04/23 12:55:03;;;;;;;7.88;1.60;;;;;;;19.52;38.61;100201.09;16120263;19;134797;-44
2023/04/23 13:00:26;;;;;;;6.80;2.13;;;;;;;19.50;38.90;100219.13;16124889;19;133186;-43
2023/04/23 13:05:47;;;;;;;4.85;1.48;;;;;;;19.48;38.92;100235.19;16122436;19;131022;-41
2023/04/23 13:11:10;;;;;;;7.07;1.80;;;;;;;19.45;38.86;100236.56;16125243;19;130539;-41
2023/04/23 13:16:32;;;;;;;10.23;1.80;;;;;;;19.42;38.85;100227.97;16124808;19;129313;-42
2023/04/23 13:21:53;;;;;;;8.10;1.50;;;;;;;19.41;39.07;100237.38;16124289;19;130733;-44
2023/04/23 13:27:15;;;;;;;8.60;1.60;;;;;;;19.37;39.28;100224.03;16126257;19;129582;-42
2023/04/23 13:32:37;;;;;;;3.83;1.58;;;;;;;19.36;39.02;100211.28;16125226;19;130123;-44
2023/04/23 13:37:59;;;;;;;10.32;1.50;;;;;;;19.33;39.42;100197.94;16122525;19;130311;-44
2023/04/23 13:43:21;;;;;;;6.40;1.42;;;;;;;19.31;39.06;100183.53;16119204;19;129921;-43
2023/04/23 13:48:43;;;;;;;11.90;1.58;;;;;;;19.29;39.50;100169.09;16119281;19;129758;-43
2023/04/23 13:54:05;;;;;;;9.90;1.30;;;;;;;19.30;39.28;100158.81;16124611;19;129276;-41
2023/04/23 13:59:27;;;;;;;6.15;1.45;;;;;;;19.30;39.19;100154.13;16119664;19;130051;-44
2023/04/23 14:04:49;;;;;;;11.32;1.55;;;;;;;19.30;39.74;100131.94;16120892;19;129814;-44
2023/04/23 14:10:11;;;;;;;7.22;1.58;;;;;;;19.30;39.89;100137.47;16119511;19;130829;-42
2023/04/23 14:15:34;;;;;;;7.00;1.50;;;;;;;19.27;39.51;100138.00;16120442;19;129614;-44
2023/04/23 14:20:56;;;;;;;7.82;1.88;;;;;;;19.25;39.85;100123.56;16119221;19;130707;-44
2023/04/23 14:26:37;;;;;;;6.97;1.30;;;;;;;19.23;39.35;100103.59;16115137;19;130194;-43
2023/04/23 14:32:01;;;;;;;7.60;1.50;;;;;;;19.21;39.73;100098.34;16116429;19;129425;-45
2023/04/23 14:37:24;;;;;;;7.03;1.35;;;;;;;19.19;39.32;100081.09;16118597;19;131804;-40
2023/04/23 14:42:46;;;;;;;7.68;1.50;;;;;;;19.17;39.77;100072.22;16121297;19;134504;-43
2023/04/23 14:48:08;;;;;;;5.15;1.30;;;;;;;19.16;39.96;100050.31;16115748;19;131348;-45
2023/04/23 14:53:30;;;;;;;11.10;1.92;;;;;;;19.16;39.64;100044.78;16121677;19;129598;-43
2023/04/23 14:58:52;;;;;;;8.23;1.83;;;;;;;19.16;40.06;100022.59;16113363;19;129174;-43
2023/04/23 15:04:15;;;;;;;9.48;2.00;;;;;;;19.14;40.11;100020.06;16115081;19;130940;-45
2023/04/23 15:09:37;;;;;;;15.43;2.22;;;;;;;19.16;39.77;100004.00;16114080;19;129826;-42
2023/04/23 15:15:05;;;;;;;6.60;2.13;;;;;;;19.19;40.11;99997.09;16116459;19;129430;-51
2023/04/23 15:20:27;;;;;;;8.52;2.40;;;;;;;19.18;39.92;99989.88;16112465;19;130657;-43
2023/04/23 15:25:50;;;;;;;9.98;2.38;;;;;;;19.19;39.96;99974.91;16113011;19;129794;-44
2023/04/23 15:31:12;;;;;;;10.55;2.20;;;;;;;19.19;40.50;99956.31;16113070;19;130943;-45
2023/04/23 15:36:36;;;;;;;9.60;2.20;;;;;;;19.20;40.09;99943.31;16115650;19;129147;-42
2023/04/23 15:41:59;;;;;;;10.13;2.13;;;;;;;19.19;40.41;99919.47;16113600;19;131146;-44
2023/04/23 15:47:22;;;;;;;8.07;1.80;;;;;;;19.20;40.61;99915.59;16117117;19;129865;-42
2023/04/23 15:52:44;;;;;;;7.40;1.92;;;;;;;19.19;40.25;99913.91;16116798;19;129203;-42
2023/04/23 15:58:06;;;;;;;10.90;1.90;;;;;;;19.20;40.39;99898.94;16113915;19;133960;-42
2023/04/23 16:03:28;;;;;;;6.10;2.05;;;;;;;19.20;40.75;99893.41;16112629;19;129622;-41
2023/04/23 16:08:50;;;;;;;5.28;1.50;;;;;;;19.20;40.34;99883.13;16112562;19;131187;-42
2023/04/23 16:14:12;;;;;;;7.30;1.50;;;;;;;19.19;40.49;99870.38;16113251;19;129518;-42
2023/04/23 16:19:34;;;;;;;5.82;2.05;;;;;;;19.19;40.95;99858.47;16113768;19;131646;-42
2023/04/23 16:24:56;;;;;;;6.38;1.10;;;;;;;19.18;40.36;99849.31;16106809;19;130903;-44
2023/04/23 16:30:17;;;;;;;4.28;1.50;;;;;;;19.17;40.72;99827.41;16114631;19;130952;-43
2023/04/23 16:35:39;;;;;;;4.28;1.52;;;;;;;19.15;40.66;99813.81;16109826;19;129541;-42
2023/04/23 16:41:01;;;;;;;5.95;1.42;;;;;;;19.15;40.58;99799.94;16112047;19;130532;-44
2023/04/23 16:46:25;;;;;;;6.00;1.35;;;;;;;19.14;40.73;99789.13;16129571;19;132002;-43
2023/04/23 16:51:46;;;;;;;7.97;1.35;;;;;;;19.12;41.17;99769.19;16124193;19;129190;-42
2023/04/23 16:57:08;;;;;;;6.60;1.38;;;;;;;19.11;41.28;99771.13;16120757;19;131091;-41
2023/04/23 17:02:31;;;;;;;4.18;1.05;;;;;;;19.10;41.02;99749.22;16122900;19;130903;-43
2023/04/23 17:07:53;;;;;;;16.83;1.50;;;;;;;19.08;40.99;99730.91;16125999;19;128937;-41
2023/04/23 17:13:15;;;;;;;5.57;1.60;;;;;;;19.06;40.96;99726.78;16121322;19;129628;-42
2023/04/23 17:18:37;;;;;;;11.23;1.42;;;;;;;19.04;41.30;99713.19;16121215;19;129515;-42
2023/04/23 17:23:59;;;;;;;11.90;1.52;;;;;;;19.04;41.08;99713.19;16121118;19;129334;-43
2023/04/23 17:29:20;;;;;;;11.27;1.50;;;;;;;19.05;41.22;99698.22;16126400;19;132244;-44
2023/04/23 17:34:42;;;;;;;10.63;1.45;;;;;;;19.05;41.36;99717.63;16121478;19;129861;-42
2023/04/23 17:40:06;;;;;;;10.07;1.75;;;;;;;19.06;41.18;99705.44;16122876;19;130379;-45
2023/04/23 17:45:28;;;;;;;4.15;1.02;;;;;;;19.06;41.46;99704.59;16124161;19;129657;-46
2023/04/23 17:50:52;;;;;;;6.80;1.23;;;;;;;19.06;41.69;99694.34;16120427;19;129559;-43
2023/04/23 17:56:14;;;;;;;3.92;1.10;;;;;;;19.06;41.81;99688.81;16115272;19;131856;-42
2023/04/23 18:01:37;;;;;;;9.70;1.50;;;;;;;19.05;41.60;99706.53;16123199;19;129767;-44
2023/04/23 18:06:59;;;;;;;8.95;1.50;;;;;;;19.05;41.68;99701.00;16118695;19;131070;-41
2023/04/23 18:12:20;;;;;;;6.55;0.93;;;;;;;19.04;41.42;99702.13;16124332;19;134332;-45
2023/04/23 18:17:43;;;;;;;12.32;1.17;;;;;;;19.07;41.55;99679.38;16118505;19;129403;-43
2023/04/23 18:23:05;;;;;;;13.45;1.23;;;;;;;19.30;41.35;99682.69;16106428;19;131062;-43
2023/04/23 18:28:31;;;;;;;14.93;1.90;;;;;;;19.64;40.60;99668.16;16107839;19;131254;-43
2023/04/23 18:33:58;;;;;;;10.95;1.00;;;;;;;20.06;39.98;99648.53;16112816;19;131273;-42
2023/04/23 18:39:20;;;;;;;10.60;0.88;;;;;;;20.36;39.90;99657.78;16114221;19;130842;-42
2023/04/23 18:44:41;;;;;;;11.95;0.90;;;;;;;20.52;39.51;99650.97;16115455;19;130235;-41
2023/04/23 18:50:35;;;;;;;17.77;1.23;;;;;;;20.59;38.81;99643.13;16105001;19;130342;-42
2023/04/23 18:55:57;;;;;;;10.23;1.10;;;;;;;20.68;38.73;99648.06;16114968;19;129585;-40
2023/04/23 19:01:20;;;;;;;22.30;1.38;;;;;;;20.82;38.46;99640.72;16113835;19;129642;-40
2023/04/23 19:06:41;;;;;;;9.85;1.10;;;;;;;20.98;38.85;99652.56;16111628;19;129626;-41
2023/04/23 19:12:04;;;;;;;14.52;0.88;;;;;;;21.13;38.63;99686.88;16114186;19;132017;-40
2023/04/23 19:17:26;;;;;;;8.02;0.90;;;;;;;21.19;38.44;99719.91;16114971;19;131213;-41
2023/04/23 19:22:48;;;;;;;8.10;0.88;;;;;;;21.20;38.00;99757.72;16113054;19;131826;-40
2023/04/23 19:28:09;;;;;;;4.60;0.63;;;;;;;21.21;37.94;99787.19;16114489;19;130954;-44
2023/04/23 19:33:31;;;;;;;13.25;0.73;;;;;;;21.18;38.17;99801.66;16112844;19;129549;-44
2023/04/23 19:38:53;;;;;;;14.07;1.80;;;;;;;21.12;38.23;99825.09;16111654;19;130351;-40
2023/04/23 19:44:15;;;;;;;10.15;0.60;;;;;;;21.04;37.99;99836.84;16111001;19;129382;-41
2023/04/23 19:49:37;;;;;;;9.48;0.60;;;;;;;20.92;38.21;99848.31;16112819;19;129539;-39
2023/04/23 19:54:59;;;;;;;7.13;0.55;;;;;;;20.82;38.17;99857.53;16109464;19;129441;-41
2023/04/23 20:00:22;;;;;;;6.25;0.60;;;;;;;20.74;38.86;99872.84;16111724;19;133671;-40
2023/04/23 20:05:45;;;;;;;13.10;0.95;;;;;;;20.64;38.91;99875.69;16112166;19;130344;-39
2023/04/23 20:11:09;;;;;;;8.02;0.80;;;;;;;20.55;38.55;99888.50;16113042;19;129614;-40
2023/04/23 20:16:31;;;;;;;6.80;0.73;;;;;;;20.50;38.76;99897.72;16115035;19;130334;-39
2023/04/23 20:21:53;;;;;;;3.38;0.50;;;;;;;20.43;38.83;99897.19;16124405;19;130992;-41
2023/04/23 20:27:15;;;;;;;3.45;0.47;;;;;;;20.37;38.89;99912.19;16121962;19;129639;-40
2023/04/23 20:32:37;;;;;;;14.65;1.10;;;;;;;20.33;38.79;99911.09;16119797;19;130773;-45
2023/04/23 20:37:59;;;;;;;19.95;1.50;;;;;;;20.26;38.66;99923.34;16126343;19;130526;-41
2023/04/23 20:43:21;;;;;;;10.88;1.13;;;;;;;20.23;38.37;99928.63;16125142;19;130270;-42
2023/04/23 20:48:43;;;;;;;9.55;0.90;;;;;;;20.17;38.25;99938.06;16125697;19;130853;-40
2023/04/23 20:54:05;;;;;;;11.57;0.90;;;;;;;20.12;38.32;99950.03;16127057;19;130848;-40
2023/04/23 20:59:27;;;;;;;16.70;0.95;;;;;;;20.05;38.67;99949.50;16121808;19;130154;-41
2023/04/23 21:04:49;;;;;;;6.97;0.93;;;;;;;19.98;38.68;99953.34;16125530;19;129311;-40
2023/04/23 21:10:11;;;;;;;5.45;0.50;;;;;;;19.94;38.78;99963.34;16121868;19;129725;-41
2023/04/23 21:15:34;;;;;;;8.98;0.40;;;;;;;19.89;38.74;99954.19;16123354;19;129295;-40
2023/04/23 21:20:56;;;;;;;5.72;0.93;;;;;;;19.84;38.81;99958.66;16121410;19;131182;-40
2023/04/23 21:26:18;;;;;;;9.45;0.93;;;;;;;19.81;38.86;99972.25;16121303;19;129671;-41
2023/04/23 21:31:47;;;;;;;4.72;0.35;;;;;;;19.77;38.59;99976.69;16117206;19;129935;-40
2023/04/23 21:37:09;;;;;;;3.63;0.43;;;;;;;19.73;38.47;99972.78;16118821;19;131507;-41
2023/04/23 21:42:31;;;;;;;5.20;0.32;;;;;;;19.68;38.90;99971.69;16121295;19;131151;-40
2023/04/23 21:47:55;;;;;;;3.17;0.35;;;;;;;19.64;38.85;99962.25;16118515;19;129952;-44
2023/04/23 21:53:17;;;;;;;2.53;0.40;;;;;;;19.62;38.41;99978.34;16120801;19;130594;-42
2023/04/23 21:58:39;;;;;;;3.25;0.30;;;;;;;19.57;38.88;99972.75;16115336;19;131193;-40
2023/04/23 22:04:02;;;;;;;2.30;0.30;;;;;;;19.55;38.47;99972.22;16119503;19;129937;-41
2023/04/23 22:09:24;;;;;;;1.67;0.40;;;;;;;19.52;38.70;99981.09;16122856;19;129467;-41
2023/04/23 22:14:46;;;;;;;1.63;0.25;;;;;;;19.50;38.46;99980.53;16122917;19;134712;-40
2023/04/23 22:20:11;;;;;;;2.28;0.20;;;;;;;19.47;38.88;99976.38;16116656;19;130169;-39
2023/04/23 22:25:32;;;;;;;0.70;0.10;;;;;;;19.44;38.47;99984.44;16118986;19;129413;-41
2023/04/23 22:30:54;;;;;;;2.45;0.38;;;;;;;19.42;38.59;99983.88;16117966;19;129893;-40
2023/04/23 22:36:16;;;;;;;2.22;0.30;;;;;;;19.39;38.45;99985.22;16118813;19;130150;-41
2023/04/23 22:41:39;;;;;;;2.17;0.22;;;;;;;19.36;38.54;99981.06;16114897;19;131160;-41
2023/04/23 22:47:00;;;;;;;1.63;0.30;;;;;;;19.34;38.52;99986.06;16120166;19;134313;-40
2023/04/23 22:52:22;;;;;;;3.35;0.30;;;;;;;19.31;38.58;99989.41;16119708;19;130883;-40
2023/04/23 22:57:44;;;;;;;3.38;0.28;;;;;;;19.28;38.68;99998.25;16115327;19;130915;-40
2023/04/23 23:03:07;;;;;;;2.85;0.30;;;;;;;19.27;38.69;100001.28;16111603;19;131734;-40
2023/04/23 23:08:29;;;;;;;1.38;0.30;;;;;;;19.23;38.46;99989.91;16117359;19;129463;-41
2023/04/23 23:13:51;;;;;;;2.00;0.60;;;;;;;19.21;38.54;99997.66;16116522;19;129681;-41
2023/04/23 23:19:13;;;;;;;1.40;0.30;;;;;;;19.20;38.95;100001.53;16115772;19;130373;-40
2023/04/23 23:24:35;;;;;;;5.00;0.80;;;;;;;19.18;38.64;100009.28;16113532;19;129317;-40
2023/04/23 23:29:57;;;;;;;4.03;0.40;;;;;;;19.15;38.78;100007.06;16116784;19;130675;-40
2023/04/23 23:35:19;;;;;;;3.15;0.63;;;;;;;19.13;38.43;99995.41;16114439;19;129772;-40
2023/04/23 23:40:41;;;;;;;2.88;0.70;;;;;;;19.10;39.00;100007.88;16116043;19;131999;-40
2023/04/23 23:46:03;;;;;;;0.45;0.30;;;;;;;19.10;38.73;100004.25;16114278;19;130101;-40
2023/04/23 23:51:27;;;;;;;1.60;0.47;;;;;;;19.07;38.90;100012.03;16116130;19;130595;-40
2023/04/23 23:56:48;;;;;;;1.75;0.43;;;;;;;19.06;38.50;100010.38;16127199;19;129826;-40
